createdAt,value
2018-12-27T00:01:04.898Z,20.15
2018-12-27T00:02:10.176Z,22.93
2018-12-27T00:03:15.561Z,17.52
2018-12-27T00:04:20.812Z,17.60
2018-12-27T00:05:27.441Z,16.48
2018-12-27T00:06:32.513Z,15.83
2018-12-27T00:07:37.535Z,17.70
2018-12-27T00:08:42.832Z,15.05
2018-12-27T00:09:47.875Z,16.30
2018-12-27T00:10:55.459Z,19.62
2018-12-27T00:12:00.560Z,16.00
2018-12-27T00:13:05.714Z,16.50
2018-12-27T00:14:11.582Z,15.32
2018-12-27T00:15:18.123Z,16.48
2018-12-27T00:16:25.221Z,16.77
2018-12-27T00:17:34.294Z,13.05
2018-12-27T00:18:39.565Z,14.95
2018-12-27T00:19:45.205Z,15.32
2018-12-27T00:20:53.035Z,17.23
2018-12-27T00:22:00.596Z,19.35
2018-12-27T00:23:05.879Z,17.25
2018-12-27T00:24:16.150Z,18.20
2018-12-27T00:25:21.631Z,14.68
2018-12-27T00:26:28.527Z,16.07
2018-12-27T00:27:37.703Z,18.02
2018-12-27T00:28:48.412Z,15.18
2018-12-27T00:29:53.550Z,14.05
2018-12-27T00:30:58.769Z,19.57
2018-12-27T00:32:04.508Z,15.45
2018-12-27T00:33:09.985Z,16.75
2018-12-27T00:34:15.186Z,17.27
2018-12-27T00:35:20.380Z,12.75
2018-12-27T00:36:25.684Z,18.40
2018-12-27T00:37:31.192Z,21.02
2018-12-27T00:38:38.026Z,15.45
2018-12-27T00:39:43.185Z,17.57
2018-12-27T00:40:53.522Z,16.60
2018-12-27T00:41:59.212Z,13.60
2018-12-27T00:43:04.654Z,16.57
2018-12-27T00:44:16.520Z,12.25
2018-12-27T00:45:21.812Z,15.38
2018-12-27T00:46:27.191Z,14.50
2018-12-27T00:47:32.446Z,14.47
2018-12-27T00:48:37.882Z,14.03
2018-12-27T00:49:44.847Z,14.35
2018-12-27T00:50:50.487Z,14.35
2018-12-27T00:51:55.899Z,12.63
2018-12-27T00:53:01.117Z,12.55
2018-12-27T00:54:07.604Z,14.68
2018-12-27T00:55:12.898Z,11.40
2018-12-27T00:56:18.200Z,14.00
2018-12-27T00:57:23.458Z,13.85
2018-12-27T00:58:28.747Z,14.15
2018-12-27T00:59:34.020Z,13.03
2018-12-27T01:00:39.211Z,13.43
2018-12-27T01:01:47.283Z,15.98
2018-12-27T01:02:52.967Z,16.10
2018-12-27T01:03:58.967Z,15.80
2018-12-27T01:05:06.293Z,13.60
2018-12-27T01:06:11.545Z,14.33
2018-12-27T01:07:18.310Z,12.10
2018-12-27T01:08:23.589Z,12.85
2018-12-27T01:09:29.335Z,16.48
2018-12-27T01:10:34.577Z,13.48
2018-12-27T01:11:40.099Z,14.40
2018-12-27T01:12:46.935Z,12.63
2018-12-27T01:13:52.374Z,11.80
2018-12-27T01:14:58.054Z,14.40
2018-12-27T01:16:03.247Z,13.80
2018-12-27T01:17:08.617Z,14.87
2018-12-27T01:18:13.775Z,11.78
2018-12-27T01:19:19.062Z,14.10
2018-12-27T01:20:26.559Z,11.95
2018-12-27T01:21:32.344Z,15.88
2018-12-27T01:22:37.556Z,15.38
2018-12-27T01:23:44.119Z,16.90
2018-12-27T01:24:49.377Z,15.72
2018-12-27T01:25:57.064Z,13.13
2018-12-27T01:27:02.248Z,13.05
2018-12-27T01:28:07.722Z,12.63
2018-12-27T01:29:13.300Z,14.00
2018-12-27T01:30:18.491Z,13.90
2018-12-27T01:31:23.823Z,13.13
2018-12-27T01:32:29.506Z,13.03
2018-12-27T01:33:34.683Z,14.20
2018-12-27T01:34:39.952Z,13.85
2018-12-27T01:35:46.146Z,12.80
2018-12-27T01:36:51.334Z,13.58
2018-12-27T01:37:56.535Z,15.05
2018-12-27T01:39:01.788Z,14.00
2018-12-27T01:40:07.324Z,16.10
2018-12-27T01:41:12.523Z,13.98
2018-12-27T01:42:22.014Z,15.15
2018-12-27T01:43:24.884Z,12.93
2018-12-27T01:44:30.509Z,15.00
2018-12-27T01:45:35.783Z,14.93
2018-12-27T01:46:40.948Z,16.70
2018-12-27T01:47:46.151Z,12.80
2018-12-27T01:48:51.486Z,14.20
2018-12-27T01:49:59.569Z,12.93
2018-12-27T01:51:04.851Z,14.90
2018-12-27T01:52:10.028Z,12.50
2018-12-27T01:53:15.200Z,15.55
2018-12-27T01:54:20.427Z,17.07
2018-12-27T01:55:27.281Z,15.32
2018-12-27T01:56:33.827Z,17.82
2018-12-27T01:57:39.081Z,15.53
2018-12-27T01:58:44.295Z,19.07
2018-12-27T01:59:57.919Z,15.35
2018-12-27T02:01:08.376Z,16.42
2018-12-27T02:02:13.651Z,15.88
2018-12-27T02:03:26.473Z,16.82
2018-12-27T02:04:27.144Z,15.10
2018-12-27T02:05:32.384Z,16.15
2018-12-27T02:06:38.178Z,10.55
2018-12-27T02:07:43.372Z,16.65
2018-12-27T02:08:48.595Z,14.38
2018-12-27T02:09:53.860Z,13.18
2018-12-27T02:10:59.154Z,15.80
2018-12-27T02:12:04.560Z,16.05
2018-12-27T02:13:09.805Z,15.95
2018-12-27T02:14:14.996Z,14.85
2018-12-27T02:15:20.316Z,14.43
2018-12-27T02:16:25.499Z,17.50
2018-12-27T02:17:30.728Z,14.65
2018-12-27T02:18:35.968Z,16.07
2018-12-27T02:19:41.136Z,14.35
2018-12-27T02:20:46.545Z,16.48
2018-12-27T02:21:51.695Z,18.10
2018-12-27T02:22:57.493Z,13.50
2018-12-27T02:24:02.706Z,14.60
2018-12-27T02:25:08.479Z,16.85
2018-12-27T02:26:13.821Z,16.17
2018-12-27T02:27:19.327Z,14.73
2018-12-27T02:28:24.920Z,18.70
2018-12-27T02:29:30.229Z,16.62
2018-12-27T02:30:35.409Z,18.50
2018-12-27T02:31:40.923Z,14.05
2018-12-27T02:32:46.186Z,16.12
2018-12-27T02:33:51.743Z,15.53
2018-12-27T02:34:57.151Z,18.17
2018-12-27T02:36:02.319Z,14.50
2018-12-27T02:37:08.064Z,15.83
2018-12-27T02:38:13.809Z,14.50
2018-12-27T02:39:19.142Z,14.58
2018-12-27T02:40:25.915Z,15.95
2018-12-27T02:41:31.098Z,15.80
2018-12-27T02:42:36.308Z,16.23
2018-12-27T02:43:41.622Z,17.77
2018-12-27T02:44:47.074Z,16.32
2018-12-27T02:45:52.286Z,15.08
2018-12-27T02:46:57.606Z,16.02
2018-12-27T02:48:02.956Z,17.82
2018-12-27T02:49:09.029Z,18.52
2018-12-27T02:50:14.496Z,18.60
2018-12-27T02:51:21.420Z,15.15
2018-12-27T02:52:27.364Z,21.42
2018-12-27T02:53:32.578Z,15.72
2018-12-27T02:54:37.753Z,13.03
2018-12-27T02:55:45.875Z,17.42
2018-12-27T02:56:51.039Z,13.50
2018-12-27T02:58:03.639Z,17.73
2018-12-27T02:59:11.315Z,15.95
2018-12-27T03:00:17.271Z,21.02
2018-12-27T03:01:22.668Z,13.83
2018-12-27T03:02:28.736Z,15.35
2018-12-27T03:03:34.398Z,13.45
2018-12-27T03:04:39.623Z,14.10
2018-12-27T03:05:44.788Z,14.13
2018-12-27T03:06:50.039Z,17.87
2018-12-27T03:07:55.223Z,17.37
2018-12-27T03:09:01.460Z,14.18
2018-12-27T03:10:06.728Z,17.32
2018-12-27T03:11:13.459Z,19.42
2018-12-27T03:12:26.251Z,14.45
2018-12-27T03:13:32.654Z,16.55
2018-12-27T03:14:41.886Z,17.75
2018-12-27T03:15:48.417Z,15.70
2018-12-27T03:16:53.822Z,14.98
2018-12-27T03:17:58.984Z,13.55
2018-12-27T03:19:04.161Z,18.65
2018-12-27T03:20:09.458Z,14.23
2018-12-27T03:21:14.958Z,12.98
2018-12-27T03:22:20.139Z,16.80
2018-12-27T03:23:28.039Z,15.93
2018-12-27T03:24:36.272Z,14.38
2018-12-27T03:25:42.219Z,14.18
2018-12-27T03:26:47.534Z,13.15
2018-12-27T03:27:52.688Z,15.05
2018-12-27T03:28:57.864Z,16.20
2018-12-27T03:30:03.597Z,17.25
2018-12-27T03:31:08.866Z,16.48
2018-12-27T03:32:14.290Z,17.10
2018-12-27T03:33:19.551Z,15.93
2018-12-27T03:34:24.726Z,14.68
2018-12-27T03:35:30.268Z,20.17
2018-12-27T03:36:35.550Z,13.72
2018-12-27T03:37:40.758Z,17.82
2018-12-27T03:38:45.942Z,14.75
2018-12-27T03:39:51.360Z,14.03
2018-12-27T03:40:56.643Z,15.63
2018-12-27T03:42:01.847Z,16.97
2018-12-27T03:43:07.051Z,19.23
2018-12-27T03:44:12.557Z,15.95
2018-12-27T03:45:17.780Z,15.50
2018-12-27T03:46:23.182Z,21.10
2018-12-27T03:47:28.411Z,15.10
2018-12-27T03:48:33.704Z,16.93
2018-12-27T03:49:39.028Z,15.55
2018-12-27T03:50:44.328Z,15.23
2018-12-27T03:51:49.595Z,17.57
2018-12-27T03:52:54.768Z,14.85
2018-12-27T03:54:03.086Z,15.60
2018-12-27T03:55:08.947Z,17.02
2018-12-27T03:56:14.259Z,17.35
2018-12-27T03:57:19.526Z,16.85
2018-12-27T03:58:24.914Z,15.75
2018-12-27T03:59:37.052Z,17.40
2018-12-27T04:00:42.546Z,12.33
2018-12-27T04:01:48.030Z,14.83
2018-12-27T04:02:53.184Z,20.17
2018-12-27T04:04:01.521Z,17.30
2018-12-27T04:05:05.195Z,18.67
2018-12-27T04:06:10.928Z,13.50
2018-12-27T04:07:16.129Z,14.15
2018-12-27T04:08:21.315Z,15.03
2018-12-27T04:09:29.492Z,16.93
2018-12-27T04:10:34.677Z,19.62
2018-12-27T04:11:39.835Z,14.43
2018-12-27T04:12:45.124Z,14.40
2018-12-27T04:13:50.309Z,13.72
2018-12-27T04:14:55.482Z,18.98
2018-12-27T04:16:00.504Z,14.30
2018-12-27T04:17:05.526Z,14.40
2018-12-27T04:18:13.827Z,11.85
2018-12-27T04:19:18.922Z,13.18
2018-12-27T04:20:24.038Z,14.83
2018-12-27T04:21:29.263Z,14.03
2018-12-27T04:22:34.369Z,12.23
2018-12-27T04:23:40.934Z,16.02
2018-12-27T04:24:46.641Z,15.72
2018-12-27T04:25:54.680Z,12.85
2018-12-27T04:26:59.760Z,18.52
2018-12-27T04:28:04.887Z,15.20
2018-12-27T04:29:09.953Z,12.93
2018-12-27T04:30:15.179Z,11.60
2018-12-27T04:31:21.080Z,17.87
2018-12-27T04:32:26.329Z,13.45
2018-12-27T04:33:31.746Z,14.58
2018-12-27T04:34:37.151Z,11.65
2018-12-27T04:35:42.345Z,12.80
2018-12-27T04:36:48.294Z,13.98
2018-12-27T04:37:53.343Z,23.02
2018-12-27T04:38:58.351Z,16.75
2018-12-27T04:40:03.355Z,14.40
2018-12-27T04:41:08.362Z,15.58
2018-12-27T04:42:13.803Z,12.70
2018-12-27T04:43:19.771Z,16.82
2018-12-27T04:44:25.124Z,14.60
2018-12-27T04:45:30.084Z,15.23
2018-12-27T04:46:35.053Z,12.00
2018-12-27T04:47:40.027Z,13.18
2018-12-27T04:48:45.053Z,14.63
2018-12-27T04:49:50.051Z,13.40
2018-12-27T04:50:55.031Z,17.98
2018-12-27T04:52:00.147Z,12.58
2018-12-27T04:53:05.489Z,13.75
2018-12-27T04:54:10.662Z,17.82
2018-12-27T04:55:15.843Z,14.95
2018-12-27T04:58:27.311Z,17.20
2018-12-27T04:59:35.412Z,13.55
2018-12-27T05:00:40.382Z,12.25
2018-12-27T05:01:45.391Z,15.75
2018-12-27T05:02:50.439Z,11.78
2018-12-27T05:03:55.458Z,14.33
2018-12-27T05:05:00.744Z,14.10
2018-12-27T05:06:07.630Z,16.82
2018-12-27T05:07:12.647Z,14.70
2018-12-27T05:08:17.696Z,16.17
2018-12-27T05:09:22.857Z,16.48
2018-12-27T05:10:28.237Z,16.65
2018-12-27T05:11:34.027Z,15.40
2018-12-27T05:12:43.874Z,13.58
2018-12-27T05:13:48.892Z,17.20
2018-12-27T05:14:53.963Z,17.15
2018-12-27T05:15:59.187Z,14.45
2018-12-27T05:17:04.199Z,17.35
2018-12-27T05:18:09.276Z,13.80
2018-12-27T05:19:14.444Z,14.90
2018-12-27T05:20:19.431Z,16.30
2018-12-27T05:21:24.495Z,13.38
2018-12-27T05:22:29.540Z,14.18
2018-12-27T05:23:35.079Z,15.55
2018-12-27T05:24:42.909Z,16.30
2018-12-27T05:25:48.332Z,14.63
2018-12-27T05:26:53.576Z,15.78
2018-12-27T05:27:58.791Z,14.95
2018-12-27T05:29:04.272Z,13.50
2018-12-27T05:30:10.138Z,18.45
2018-12-27T05:31:17.664Z,15.43
2018-12-27T05:32:23.082Z,14.15
2018-12-27T05:33:28.179Z,22.40
2018-12-27T05:34:33.228Z,16.35
2018-12-27T05:35:38.437Z,13.62
2018-12-27T05:36:43.463Z,14.28
2018-12-27T05:37:48.522Z,16.75
2018-12-27T05:38:53.566Z,17.20
2018-12-27T05:39:58.967Z,16.87
2018-12-27T05:41:04.215Z,16.62
2018-12-27T05:42:09.495Z,14.75
2018-12-27T05:43:14.510Z,14.70
2018-12-27T05:44:19.547Z,16.05
2018-12-27T05:45:24.566Z,15.45
2018-12-27T05:46:29.607Z,13.80
2018-12-27T05:47:34.696Z,14.47
2018-12-27T05:48:39.703Z,17.05
2018-12-27T05:49:44.719Z,18.10
2018-12-27T05:50:49.734Z,15.53
2018-12-27T05:51:55.163Z,15.43
2018-12-27T05:53:00.346Z,15.05
2018-12-27T05:54:05.535Z,13.90
2018-12-27T05:55:10.583Z,15.43
2018-12-27T05:56:15.611Z,13.55
2018-12-27T05:57:20.654Z,15.35
2018-12-27T05:58:25.729Z,15.53
2018-12-27T05:59:30.793Z,13.88
2018-12-27T06:00:36.270Z,15.20
2018-12-27T06:01:44.370Z,13.40
2018-12-27T06:02:49.437Z,18.90
2018-12-27T06:03:54.431Z,15.18
2018-12-27T06:04:59.436Z,14.80
2018-12-27T06:06:04.462Z,15.35
2018-12-27T06:07:10.818Z,13.03
2018-12-27T06:08:15.840Z,14.45
2018-12-27T06:09:20.967Z,15.75
2018-12-27T06:10:25.971Z,17.85
2018-12-27T06:11:31.088Z,15.13
2018-12-27T06:12:38.703Z,17.15
2018-12-27T06:13:43.764Z,15.63
2018-12-27T06:14:51.563Z,15.32
2018-12-27T06:15:56.688Z,17.25
2018-12-27T06:17:01.812Z,13.03
2018-12-27T06:18:06.861Z,18.62
2018-12-27T06:19:11.880Z,15.98
2018-12-27T06:20:16.910Z,15.85
2018-12-27T06:21:22.003Z,15.13
2018-12-27T06:22:27.471Z,18.15
2018-12-27T06:23:32.510Z,14.63
2018-12-27T06:24:41.163Z,13.93
2018-12-27T06:25:46.165Z,15.08
2018-12-27T06:26:57.411Z,13.40
2018-12-27T06:28:05.150Z,14.23
2018-12-27T06:29:10.649Z,14.90
2018-12-27T06:30:15.798Z,15.83
2018-12-27T06:31:21.374Z,19.82
2018-12-27T06:32:26.627Z,17.23
2018-12-27T06:33:32.099Z,15.93
2018-12-27T06:34:41.426Z,18.42
2018-12-27T06:35:45.250Z,15.05
2018-12-27T06:36:56.389Z,13.88
2018-12-27T06:38:11.430Z,19.98
2018-12-27T06:39:22.645Z,23.32
2018-12-27T06:40:28.079Z,50.50
2018-12-27T06:41:33.745Z,21.30
2018-12-27T06:42:38.978Z,24.95
2018-12-27T06:43:44.549Z,32.35
2018-12-27T06:44:49.742Z,45.38
2018-12-27T06:46:08.332Z,33.28
2018-12-27T06:47:22.653Z,29.50
2018-12-27T06:48:28.543Z,25.95
2018-12-27T06:49:37.747Z,34.27
2018-12-27T06:50:43.032Z,22.40
2018-12-27T06:51:49.224Z,21.23
2018-12-27T06:52:55.014Z,15.68
2018-12-27T06:54:03.073Z,17.35
2018-12-27T06:55:09.047Z,18.82
2018-12-27T06:56:24.786Z,16.97
2018-12-27T06:57:33.655Z,19.05
2018-12-27T06:58:38.882Z,16.25
2018-12-27T06:59:44.035Z,13.13
2018-12-27T07:00:50.874Z,16.05
2018-12-27T07:01:57.466Z,25.88
2018-12-27T07:03:02.985Z,20.20
2018-12-27T07:04:08.026Z,17.23
2018-12-27T07:05:15.526Z,16.75
2018-12-27T07:06:26.971Z,14.33
2018-12-27T07:07:34.199Z,22.37
2018-12-27T07:08:39.375Z,14.83
2018-12-27T07:09:44.491Z,21.33
2018-12-27T07:10:50.048Z,16.90
2018-12-27T07:11:56.406Z,15.18
2018-12-27T07:13:01.700Z,20.92
2018-12-27T07:14:07.131Z,17.12
2018-12-27T07:15:12.315Z,16.00
2018-12-27T07:16:17.526Z,16.42
2018-12-27T07:17:23.755Z,14.65
2018-12-27T07:18:28.779Z,17.90
2018-12-27T07:19:34.889Z,17.35
2018-12-27T07:20:46.673Z,22.15
2018-12-27T07:21:53.112Z,13.55
2018-12-27T07:23:00.951Z,16.60
2018-12-27T07:24:06.051Z,13.78
2018-12-27T07:25:11.204Z,16.45
2018-12-27T07:26:16.215Z,13.28
2018-12-27T07:27:21.235Z,16.07
2018-12-27T07:28:27.447Z,19.23
2018-12-27T07:29:35.803Z,15.30
2018-12-27T07:30:44.306Z,21.45
2018-12-27T07:31:49.506Z,15.32
2018-12-27T07:32:54.996Z,19.62
2018-12-27T07:34:01.402Z,20.52
2018-12-27T07:35:06.605Z,19.07
2018-12-27T07:36:11.655Z,18.02
2018-12-27T07:37:16.675Z,21.05
2018-12-27T07:38:23.566Z,26.50
2018-12-27T07:39:28.576Z,19.92
2018-12-27T07:40:33.652Z,23.42
2018-12-27T07:41:38.847Z,27.62
2018-12-27T07:42:44.940Z,22.62
2018-12-27T07:44:00.359Z,23.25
2018-12-27T07:45:08.413Z,19.90
2018-12-27T07:46:13.543Z,20.80
2018-12-27T07:47:18.611Z,20.08
2018-12-27T07:48:23.799Z,22.65
2018-12-27T07:49:29.221Z,18.20
2018-12-27T07:50:34.231Z,18.52
2018-12-27T07:51:39.264Z,16.95
2018-12-27T07:52:45.943Z,17.60
2018-12-27T07:53:51.016Z,16.90
2018-12-27T07:54:56.570Z,17.52
2018-12-27T07:56:01.660Z,15.75
2018-12-27T07:57:06.862Z,16.65
2018-12-27T07:58:14.883Z,14.58
2018-12-27T07:59:20.512Z,16.70
2018-12-27T08:00:25.648Z,14.33
2018-12-27T08:01:31.117Z,12.15
2018-12-27T08:02:38.532Z,18.67
2018-12-27T08:03:43.541Z,13.80
2018-12-27T08:04:50.146Z,14.58
2018-12-27T08:05:55.171Z,16.62
2018-12-27T08:07:00.799Z,86.32
2018-12-27T08:08:06.178Z,322.20
2018-12-27T08:09:11.349Z,56.00
2018-12-27T08:10:16.476Z,47.80
2018-12-27T08:11:21.503Z,41.77
2018-12-27T08:12:28.889Z,22.15
2018-12-27T08:13:33.931Z,34.73
2018-12-27T08:14:41.451Z,25.52
2018-12-27T08:15:49.012Z,23.05
2018-12-27T08:16:54.068Z,22.60
2018-12-27T08:17:59.495Z,23.30
2018-12-27T08:19:04.573Z,23.12
2018-12-27T08:20:10.007Z,18.70
2018-12-27T08:21:16.344Z,20.60
2018-12-27T08:22:21.364Z,17.77
2018-12-27T08:23:26.390Z,17.25
2018-12-27T08:24:36.240Z,18.02
2018-12-27T08:25:41.520Z,14.90
2018-12-27T08:26:48.691Z,17.50
2018-12-27T08:27:53.913Z,17.65
2018-12-27T08:29:01.537Z,18.73
2018-12-27T08:30:08.196Z,16.40
2018-12-27T08:31:13.981Z,14.93
2018-12-27T08:32:20.519Z,15.90
2018-12-27T08:33:25.588Z,16.65
2018-12-27T08:34:33.435Z,18.15
2018-12-27T08:35:38.974Z,15.25
2018-12-27T08:36:44.029Z,16.20
2018-12-27T08:37:50.311Z,14.70
2018-12-27T08:38:55.871Z,15.55
2018-12-27T08:40:03.834Z,18.30
2018-12-27T08:41:09.053Z,14.25
2018-12-27T08:42:21.107Z,17.77
2018-12-27T08:43:26.294Z,16.65
2018-12-27T08:44:33.635Z,15.30
2018-12-27T08:45:39.303Z,13.90
2018-12-27T08:46:44.431Z,18.90
2018-12-27T08:47:49.564Z,14.33
2018-12-27T08:49:01.820Z,19.25
2018-12-27T08:50:08.984Z,16.77
2018-12-27T08:51:14.271Z,13.30
2018-12-27T08:52:21.711Z,16.60
2018-12-27T08:53:27.420Z,17.87
2018-12-27T08:54:32.561Z,19.00
2018-12-27T08:55:48.421Z,12.60
2018-12-27T08:56:58.312Z,16.80
2018-12-27T08:58:07.072Z,12.20
2018-12-27T08:59:12.340Z,13.43
2018-12-27T09:00:19.007Z,18.00
2018-12-27T09:01:43.461Z,23.70
2018-12-27T09:02:50.119Z,16.27
2018-12-27T09:04:00.533Z,15.25
2018-12-27T09:05:06.800Z,12.85
2018-12-27T09:06:12.013Z,15.32
2018-12-27T09:07:17.298Z,12.35
2018-12-27T09:08:24.178Z,17.32
2018-12-27T09:09:29.792Z,13.72
2018-12-27T09:10:35.519Z,13.75
2018-12-27T09:11:40.839Z,12.43
2018-12-27T09:12:47.382Z,17.00
2018-12-27T09:14:02.275Z,12.75
2018-12-27T09:15:10.246Z,13.72
2018-12-27T09:16:23.686Z,15.18
2018-12-27T09:17:28.696Z,18.87
2018-12-27T09:18:33.817Z,30.00
2018-12-27T09:19:39.887Z,47.48
2018-12-27T09:20:45.934Z,33.08
2018-12-27T09:21:53.195Z,18.95
2018-12-27T09:23:01.579Z,15.35
2018-12-27T09:24:09.250Z,24.15
2018-12-27T09:25:15.634Z,19.52
2018-12-27T09:26:21.835Z,14.25
2018-12-27T09:27:28.625Z,12.30
2018-12-27T09:28:34.281Z,17.35
2018-12-27T09:29:40.326Z,17.12
2018-12-27T09:30:45.333Z,18.37
2018-12-27T09:31:53.114Z,11.18
2018-12-27T09:32:59.807Z,12.43
2018-12-27T09:34:09.047Z,22.27
2018-12-27T09:35:14.190Z,15.68
2018-12-27T09:36:19.230Z,11.65
2018-12-27T16:33:26.048Z,42.15
2018-12-27T16:34:34.684Z,46.05
2018-12-27T16:35:40.280Z,39.58
2018-12-27T16:36:51.396Z,44.70
2018-12-27T16:37:56.639Z,41.98
2018-12-27T16:39:03.114Z,45.15
2018-12-27T16:40:12.481Z,38.53
2018-12-27T16:41:17.445Z,29.00
2018-12-27T16:42:22.689Z,29.75
2018-12-27T16:43:30.980Z,31.10
2018-12-27T16:44:35.981Z,27.42
2018-12-27T16:45:41.216Z,52.38
2018-12-27T16:51:24.497Z,37.75
2018-12-27T16:52:36.724Z,35.03
2018-12-27T16:53:43.082Z,22.10
2018-12-27T16:54:48.087Z,26.30
2018-12-27T16:55:53.228Z,21.87
2018-12-27T17:08:22.971Z,28.73
2018-12-27T17:09:32.689Z,34.35
2018-12-27T17:10:37.485Z,26.33
2018-12-27T17:11:42.796Z,27.87
2018-12-27T17:12:47.650Z,31.93
2018-12-27T17:13:51.779Z,25.85
2018-12-27T17:15:14.174Z,23.50
2018-12-27T17:16:18.673Z,21.12
2018-12-27T17:17:24.368Z,26.65
2018-12-27T17:18:31.004Z,49.10
2018-12-27T17:19:38.415Z,64.58
2018-12-27T17:20:43.958Z,149.42
2018-12-27T17:21:49.191Z,103.85
2018-12-27T17:22:54.370Z,59.40
2018-12-27T17:23:59.337Z,47.45
2018-12-27T17:25:04.955Z,54.90
2018-12-27T17:26:10.630Z,70.25
2018-12-27T17:27:16.194Z,53.42
2018-12-27T17:28:22.454Z,39.08
2018-12-27T17:29:31.203Z,31.12
2018-12-27T17:30:40.169Z,28.15
2018-12-27T17:31:48.674Z,20.90
2018-12-27T17:32:58.483Z,22.35
2018-12-27T17:34:03.518Z,25.85
2018-12-27T17:35:08.559Z,23.80
2018-12-27T17:36:13.613Z,17.82
2018-12-27T17:37:23.279Z,22.05
2018-12-27T17:38:25.530Z,17.02
2018-12-27T17:39:32.186Z,16.42
2018-12-27T17:40:37.614Z,17.23
2018-12-27T17:41:42.901Z,14.98
2018-12-27T17:42:49.423Z,18.12
2018-12-27T17:43:54.897Z,26.15
2018-12-27T17:45:00.043Z,19.87
2018-12-27T17:46:05.396Z,16.27
2018-12-27T17:47:10.427Z,23.85
2018-12-27T17:48:15.302Z,20.75
2018-12-27T17:49:20.141Z,19.73
2018-12-27T17:50:25.479Z,34.27
2018-12-27T17:51:38.823Z,21.62
2018-12-27T17:52:43.813Z,22.95
2018-12-27T17:53:49.077Z,23.83
2018-12-27T17:54:54.138Z,29.48
2018-12-27T17:55:59.577Z,61.42
2018-12-27T17:57:04.489Z,45.78
2018-12-27T17:59:41.154Z,30.48
2018-12-27T18:00:50.755Z,31.62
2018-12-27T18:02:01.317Z,53.20
2018-12-27T18:03:09.176Z,63.85
2018-12-27T18:04:16.278Z,74.32
2018-12-27T18:05:21.294Z,72.78
2018-12-27T18:06:33.215Z,52.48
2018-12-27T18:07:41.692Z,57.73
2018-12-27T18:08:55.763Z,40.10
2018-12-27T18:10:08.032Z,37.45
2018-12-27T18:11:26.566Z,29.20
2018-12-27T18:12:34.683Z,31.95
2018-12-27T18:13:46.686Z,27.27
2018-12-27T18:15:03.787Z,29.18
2018-12-27T18:16:08.775Z,27.75
2018-12-27T18:17:15.602Z,37.00
2018-12-27T18:18:28.413Z,29.37
2018-12-27T18:19:40.346Z,25.95
2018-12-27T18:20:46.684Z,41.33
2018-12-27T18:21:51.709Z,45.23
2018-12-27T18:23:03.204Z,40.90
2018-12-27T18:24:13.021Z,39.85
2018-12-27T18:25:20.275Z,33.75
2018-12-27T18:26:26.380Z,25.02
2018-12-27T18:27:42.484Z,26.65
2018-12-27T18:28:50.812Z,31.05
2018-12-27T18:30:00.219Z,20.50
2018-12-27T18:31:14.242Z,25.60
2018-12-27T18:32:19.190Z,20.65
2018-12-27T18:33:27.334Z,21.87
2018-12-27T18:34:32.187Z,20.60
2018-12-27T18:35:37.254Z,21.15
2018-12-27T18:36:58.100Z,20.65
2018-12-27T18:38:03.250Z,36.23
2018-12-27T18:39:13.173Z,21.17
2018-12-27T18:40:29.962Z,26.45
2018-12-27T18:41:39.058Z,24.27
2018-12-27T18:42:46.879Z,20.02
2018-12-27T18:43:59.433Z,24.32
2018-12-27T18:45:16.639Z,23.07
2018-12-27T18:46:24.903Z,23.80
2018-12-27T18:47:36.364Z,21.50
2018-12-27T18:48:47.161Z,24.92
2018-12-27T18:49:54.154Z,24.12
2018-12-27T18:51:02.085Z,28.42
2018-12-27T18:52:20.350Z,36.13
2018-12-27T18:53:39.642Z,26.82
2018-12-27T18:54:58.289Z,25.82
2018-12-27T18:56:03.519Z,24.47
2018-12-27T18:57:19.227Z,24.67
2018-12-27T18:58:29.075Z,25.90
2018-12-27T18:59:36.587Z,28.38
2018-12-27T19:00:49.280Z,22.77
2018-12-27T19:01:59.584Z,19.05
2018-12-27T19:03:10.443Z,24.32
2018-12-27T19:04:19.176Z,20.50
2018-12-27T19:05:39.012Z,21.02
2018-12-27T19:06:41.759Z,25.90
2018-12-27T19:07:52.113Z,19.15
2018-12-27T19:08:58.225Z,23.85
2018-12-27T19:10:06.761Z,22.75
2018-12-27T19:11:47.597Z,23.77
2018-12-27T19:13:18.718Z,18.87
2018-12-27T19:14:24.192Z,19.92
2018-12-27T19:16:06.692Z,17.65
2018-12-27T19:17:27.914Z,26.95
2018-12-27T19:18:42.394Z,22.15
2018-12-27T19:19:49.080Z,22.37
2018-12-27T19:21:21.257Z,36.15
2018-12-27T19:22:54.210Z,30.62
2018-12-27T19:24:03.622Z,28.38
2018-12-27T19:25:10.346Z,35.43
2018-12-27T19:26:15.438Z,25.15
2018-12-27T19:27:31.801Z,33.05
2018-12-27T19:28:39.904Z,29.27
2018-12-27T19:29:44.574Z,59.13
2018-12-27T19:30:49.456Z,32.80
2018-12-27T19:31:54.415Z,25.08
2018-12-27T19:33:02.498Z,24.02
2018-12-27T19:34:07.693Z,23.85
2018-12-27T19:35:14.023Z,34.70
2018-12-27T19:36:19.198Z,28.23
2018-12-27T19:37:24.669Z,26.75
2018-12-27T19:38:29.787Z,23.20
2018-12-27T19:39:34.842Z,23.60
2018-12-27T19:40:44.092Z,23.83
2018-12-27T19:41:52.505Z,23.50
2018-12-27T19:43:03.707Z,23.90
2018-12-27T19:44:09.553Z,24.23
2018-12-27T19:45:16.088Z,21.95
2018-12-27T19:46:22.368Z,18.75
2018-12-27T19:47:59.029Z,21.12
2018-12-27T19:49:04.476Z,17.87
2018-12-27T19:50:11.359Z,19.10
2018-12-27T19:51:23.074Z,20.10
2018-12-27T19:52:27.855Z,16.62
2018-12-27T19:53:36.154Z,19.30
2018-12-27T19:54:43.044Z,18.60
2018-12-27T19:55:49.093Z,20.72
2018-12-27T19:56:55.345Z,21.25
2018-12-27T19:58:03.666Z,17.55
2018-12-27T19:59:55.071Z,17.23
2018-12-27T20:01:07.858Z,17.23
2018-12-27T20:02:32.391Z,19.35
2018-12-27T20:03:43.407Z,19.60
2018-12-27T20:05:03.714Z,22.42
2018-12-27T20:06:11.326Z,20.23
2018-12-27T20:07:31.276Z,17.92
2018-12-27T20:08:39.506Z,14.83
2018-12-27T20:09:59.024Z,16.75
2018-12-27T20:11:08.780Z,18.48
2018-12-27T20:12:46.099Z,21.52
2018-12-27T20:13:55.963Z,21.95
2018-12-27T20:15:13.282Z,16.40
2018-12-27T20:16:42.754Z,15.43
2018-12-27T20:18:47.219Z,22.73
2018-12-27T20:19:58.695Z,25.70
2018-12-27T20:21:05.970Z,27.10
2018-12-27T20:22:14.084Z,31.35
2018-12-27T20:23:28.265Z,32.42
2018-12-27T20:24:42.541Z,29.25
2018-12-27T20:25:51.565Z,22.35
2018-12-27T20:26:57.224Z,21.45
2018-12-27T20:28:05.423Z,26.57
2018-12-27T20:29:10.350Z,20.57
2018-12-27T20:30:17.636Z,26.12
2018-12-27T20:31:27.094Z,21.90
2018-12-27T20:32:34.311Z,22.80
2018-12-27T20:33:42.440Z,44.80
2018-12-27T20:34:48.198Z,33.98
2018-12-27T20:35:53.410Z,34.78
2018-12-27T20:37:00.066Z,21.80
2018-12-27T20:38:08.417Z,20.88
2018-12-27T20:39:13.447Z,26.00
2018-12-27T20:40:23.786Z,27.27
2018-12-27T20:41:31.247Z,45.35
2018-12-27T20:42:37.477Z,44.50
2018-12-27T20:43:42.293Z,31.62
2018-12-27T20:44:48.509Z,370.80
2018-12-27T20:46:25.076Z,209.35
2018-12-27T20:47:35.305Z,182.72
2018-12-27T20:48:44.562Z,166.07
2018-12-27T20:49:53.471Z,71.65
2018-12-27T20:50:58.960Z,49.18
2018-12-27T20:52:09.226Z,52.93
2018-12-27T20:53:15.191Z,189.13
2018-12-27T20:54:20.356Z,51.08
2018-12-27T20:55:29.503Z,230.10
2018-12-27T20:56:34.757Z,212.68
2018-12-27T20:57:40.324Z,166.60
2018-12-27T20:58:52.193Z,91.92
2018-12-27T21:00:02.331Z,94.75
2018-12-27T21:01:10.138Z,79.92
2018-12-27T21:02:18.311Z,55.17
2018-12-27T21:03:25.209Z,42.10
2018-12-27T21:04:36.089Z,50.30
2018-12-27T21:05:39.095Z,55.55
2018-12-27T21:06:46.408Z,31.57
2018-12-27T21:07:51.937Z,44.48
2018-12-27T21:08:57.486Z,46.15
2018-12-27T21:10:05.503Z,36.23
2018-12-27T21:11:15.000Z,36.38
2018-12-27T21:12:20.812Z,43.38
2018-12-27T21:13:29.144Z,44.20
2018-12-27T21:14:34.094Z,30.62
2018-12-27T21:15:39.273Z,35.25
2018-12-27T21:16:46.077Z,28.92
2018-12-27T21:17:54.414Z,26.93
2018-12-27T21:18:59.379Z,25.02
2018-12-27T21:20:04.428Z,23.32
2018-12-27T21:21:10.029Z,21.68
2018-12-27T21:22:15.330Z,20.50
2018-12-27T21:23:23.900Z,19.85
2018-12-27T21:24:37.974Z,24.63
2018-12-27T21:25:51.241Z,25.23
2018-12-27T21:26:57.118Z,17.32
2018-12-27T21:28:02.004Z,18.90
2018-12-27T21:29:10.536Z,19.25
2018-12-27T21:30:17.460Z,21.48
2018-12-27T21:31:23.025Z,19.98
2018-12-27T21:32:28.392Z,27.20
2018-12-27T21:33:36.962Z,25.70
2018-12-27T21:34:41.915Z,21.40
2018-12-27T21:35:49.549Z,24.65
2018-12-27T21:36:54.775Z,21.25
2018-12-27T21:38:00.182Z,23.42
2018-12-27T21:39:07.648Z,21.02
2018-12-27T21:40:15.247Z,22.20
2018-12-27T21:41:31.097Z,20.08
2018-12-27T21:42:52.012Z,21.10